sensor_id;sensor_type;location;lat;lon;timestamp;pressure;altitude;pressure_sealevel;temperature;humidity
21203;BME280;10759;51.982;9.232;2022-11-18T00:00:12;98562.75;;;6.72;100.00
21203;BME280;10759;51.982;9.232;2022-11-18T00:02:40;98570.44;;;6.78;100.00
21203;BME280;10759;51.982;9.232;2022-11-18T00:05:08;98575.81;;;6.76;100.00
21203;BME280;10759;51.982;9.232;2022-11-18T00:07:37;98558.84;;;6.61;100.00
21203;BME280;10759;51.982;9.232;2022-11-18T00:10:05;98486.19;;;6.24;100.00
21203;BME280;10759;51.982;9.232;2022-11-18T00:12:33;98573.25;;;6.75;100.00
21203;BME280;10759;51.982;9.232;2022-11-18T00:15:19;98543.19;;;6.55;100.00
21203;BME280;10759;51.982;9.232;2022-11-18T00:17:47;98566.44;;;6.69;100.00
21203;BME280;10759;51.982;9.232;2022-11-18T00:20:15;98577.88;;;6.71;100.00
21203;BME280;10759;51.982;9.232;2022-11-18T00:22:45;98581.25;;;6.75;100.00
21203;BME280;10759;51.982;9.232;2022-11-18T00:25:13;98570.34;;;6.62;100.00
21203;BME280;10759;51.982;9.232;2022-11-18T00:27:41;98585.84;;;6.71;100.00
21203;BME280;10759;51.982;9.232;2022-11-18T00:30:10;98576.06;;;6.72;100.00
21203;BME280;10759;51.982;9.232;2022-11-18T00:32:38;98588.13;;;6.79;100.00
21203;BME280;10759;51.982;9.232;2022-11-18T00:35:07;98591.91;;;6.75;100.00
21203;BME280;10759;51.982;9.232;2022-11-18T00:37:35;98533.00;;;6.46;100.00
21203;BME280;10759;51.982;9.232;2022-11-18T00:40:05;98593.44;;;6.79;100.00
21203;BME280;10759;51.982;9.232;2022-11-18T00:42:33;98521.09;;;6.36;100.00
21203;BME280;10759;51.982;9.232;2022-11-18T00:45:20;98569.59;;;6.77;100.00
21203;BME280;10759;51.982;9.232;2022-11-18T00:47:48;98603.72;;;7.04;100.00
21203;BME280;10759;51.982;9.232;2022-11-18T00:50:16;98607.25;;;7.04;100.00
21203;BME280;10759;51.982;9.232;2022-11-18T00:52:44;98582.09;;;6.75;100.00
21203;BME280;10759;51.982;9.232;2022-11-18T00:55:14;98612.56;;;6.87;100.00
21203;BME280;10759;51.982;9.232;2022-11-18T00:57:42;98607.09;;;6.90;100.00
21203;BME280;10759;51.982;9.232;2022-11-18T01:00:10;98608.66;;;6.94;100.00
21203;BME280;10759;51.982;9.232;2022-11-18T01:02:38;98615.69;;;6.95;100.00
21203;BME280;10759;51.982;9.232;2022-11-18T01:05:07;98609.34;;;6.98;100.00
21203;BME280;10759;51.982;9.232;2022-11-18T01:07:35;98555.72;;;6.53;100.00
21203;BME280;10759;51.982;9.232;2022-11-18T01:10:04;98618.19;;;6.98;100.00
21203;BME280;10759;51.982;9.232;2022-11-18T01:12:34;98616.16;;;7.03;100.00
21203;BME280;10759;51.982;9.232;2022-11-18T01:15:20;98624.00;;;7.06;100.00
21203;BME280;10759;51.982;9.232;2022-11-18T01:17:48;98628.22;;;7.10;100.00
21203;BME280;10759;51.982;9.232;2022-11-18T01:20:16;98631.75;;;7.11;100.00
21203;BME280;10759;51.982;9.232;2022-11-18T01:22:44;98630.97;;;7.26;100.00
21203;BME280;10759;51.982;9.232;2022-11-18T01:25:12;98628.72;;;7.19;100.00
21203;BME280;10759;51.982;9.232;2022-11-18T01:27:42;98635.03;;;6.99;100.00
21203;BME280;10759;51.982;9.232;2022-11-18T01:30:11;98641.88;;;7.04;100.00
21203;BME280;10759;51.982;9.232;2022-11-18T01:32:39;98634.28;;;6.97;100.00
21203;BME280;10759;51.982;9.232;2022-11-18T01:35:08;98642.78;;;6.86;100.00
21203;BME280;10759;51.982;9.232;2022-11-18T01:37:36;98642.50;;;6.92;100.00
21203;BME280;10759;51.982;9.232;2022-11-18T01:40:06;98642.63;;;6.89;100.00
21203;BME280;10759;51.982;9.232;2022-11-18T01:42:35;98540.34;;;6.41;100.00
21203;BME280;10759;51.982;9.232;2022-11-18T01:47:54;98642.25;;;6.97;100.00
21203;BME280;10759;51.982;9.232;2022-11-18T01:50:24;98644.03;;;6.96;100.00
21203;BME280;10759;51.982;9.232;2022-11-18T01:52:55;98635.13;;;6.97;100.00
21203;BME280;10759;51.982;9.232;2022-11-18T01:55:27;98628.06;;;6.96;100.00
21203;BME280;10759;51.982;9.232;2022-11-18T01:58:02;98653.22;;;7.08;100.00
21203;BME280;10759;51.982;9.232;2022-11-18T02:00:34;98652.66;;;7.01;100.00
21203;BME280;10759;51.982;9.232;2022-11-18T02:03:03;98647.25;;;7.03;100.00
21203;BME280;10759;51.982;9.232;2022-11-18T02:05:32;98652.19;;;7.10;100.00
21203;BME280;10759;51.982;9.232;2022-11-18T02:08:02;98648.59;;;7.12;100.00
21203;BME280;10759;51.982;9.232;2022-11-18T02:10:30;98627.59;;;7.05;100.00
21203;BME280;10759;51.982;9.232;2022-11-18T02:12:58;98651.03;;;7.16;100.00
21203;BME280;10759;51.982;9.232;2022-11-18T02:15:39;98652.69;;;7.19;100.00
21203;BME280;10759;51.982;9.232;2022-11-18T02:18:20;98657.84;;;7.22;100.00
21203;BME280;10759;51.982;9.232;2022-11-18T02:20:55;98655.00;;;7.25;100.00
21203;BME280;10759;51.982;9.232;2022-11-18T02:23:54;98601.94;;;6.87;100.00
21203;BME280;10759;51.982;9.232;2022-11-18T02:26:57;98648.09;;;7.21;100.00
21203;BME280;10759;51.982;9.232;2022-11-18T02:29:35;98665.28;;;7.32;100.00
21203;BME280;10759;51.982;9.232;2022-11-18T02:32:10;98670.16;;;7.24;100.00
21203;BME280;10759;51.982;9.232;2022-11-18T02:34:46;98670.69;;;7.31;100.00
21203;BME280;10759;51.982;9.232;2022-11-18T02:37:20;98641.53;;;7.10;100.00
21203;BME280;10759;51.982;9.232;2022-11-18T02:39:53;98685.72;;;7.32;100.00
21203;BME280;10759;51.982;9.232;2022-11-18T02:42:25;98686.81;;;7.28;100.00
21203;BME280;10759;51.982;9.232;2022-11-18T02:45:00;98691.22;;;7.29;100.00
21203;BME280;10759;51.982;9.232;2022-11-18T02:47:31;98575.59;;;6.63;100.00
21203;BME280;10759;51.982;9.232;2022-11-18T02:50:03;98700.75;;;7.33;100.00
21203;BME280;10759;51.982;9.232;2022-11-18T02:52:34;98690.03;;;7.35;100.00
21203;BME280;10759;51.982;9.232;2022-11-18T02:55:08;98690.44;;;7.27;100.00
21203;BME280;10759;51.982;9.232;2022-11-18T02:57:39;98638.38;;;6.50;100.00
21203;BME280;10759;51.982;9.232;2022-11-18T03:00:12;98673.34;;;6.96;100.00
21203;BME280;10759;51.982;9.232;2022-11-18T03:02:41;98699.50;;;7.23;100.00
21203;BME280;10759;51.982;9.232;2022-11-18T03:05:14;98701.72;;;7.15;100.00
21203;BME280;10759;51.982;9.232;2022-11-18T03:07:45;98704.06;;;7.21;100.00
21203;BME280;10759;51.982;9.232;2022-11-18T03:10:18;98696.22;;;7.00;100.00
21203;BME280;10759;51.982;9.232;2022-11-18T03:12:53;98697.28;;;6.96;100.00
21203;BME280;10759;51.982;9.232;2022-11-18T03:15:31;98706.88;;;7.00;100.00
21203;BME280;10759;51.982;9.232;2022-11-18T03:18:09;98550.84;;;6.08;100.00
21203;BME280;10759;51.982;9.232;2022-11-18T03:20:46;98701.75;;;6.96;100.00
21203;BME280;10759;51.982;9.232;2022-11-18T03:23:21;98698.06;;;6.81;100.00
21203;BME280;10759;51.982;9.232;2022-11-18T03:25:54;98667.97;;;6.79;100.00
21203;BME280;10759;51.982;9.232;2022-11-18T03:28:28;98707.50;;;7.05;100.00
21203;BME280;10759;51.982;9.232;2022-11-18T03:31:02;98703.59;;;7.13;100.00
21203;BME280;10759;51.982;9.232;2022-11-18T03:33:36;98707.22;;;7.12;100.00
21203;BME280;10759;51.982;9.232;2022-11-18T03:36:06;98698.66;;;7.22;100.00
21203;BME280;10759;51.982;9.232;2022-11-18T03:38:40;98605.03;;;6.60;100.00
21203;BME280;10759;51.982;9.232;2022-11-18T03:41:10;98684.16;;;7.10;100.00
21203;BME280;10759;51.982;9.232;2022-11-18T03:43:45;98717.25;;;7.24;100.00
21203;BME280;10759;51.982;9.232;2022-11-18T03:46:18;98695.81;;;7.08;100.00
21203;BME280;10759;51.982;9.232;2022-11-18T03:48:49;98721.16;;;7.34;100.00
21203;BME280;10759;51.982;9.232;2022-11-18T03:51:21;98726.88;;;7.26;100.00
21203;BME280;10759;51.982;9.232;2022-11-18T03:53:55;98728.44;;;7.30;100.00
21203;BME280;10759;51.982;9.232;2022-11-18T03:56:30;98717.88;;;7.12;100.00
21203;BME280;10759;51.982;9.232;2022-11-18T03:59:04;98733.53;;;7.18;100.00
21203;BME280;10759;51.982;9.232;2022-11-18T04:01:39;98699.31;;;6.91;100.00
21203;BME280;10759;51.982;9.232;2022-11-18T04:04:09;98681.78;;;6.70;100.00
21203;BME280;10759;51.982;9.232;2022-11-18T04:06:41;98739.47;;;7.05;100.00
21203;BME280;10759;51.982;9.232;2022-11-18T04:09:17;98740.84;;;6.95;100.00
21203;BME280;10759;51.982;9.232;2022-11-18T04:11:50;98743.09;;;6.85;100.00
21203;BME280;10759;51.982;9.232;2022-11-18T04:14:33;98702.91;;;6.73;100.00
21203;BME280;10759;51.982;9.232;2022-11-18T04:17:07;98750.94;;;6.88;100.00
21203;BME280;10759;51.982;9.232;2022-11-18T04:19:36;98753.22;;;6.96;100.00
21203;BME280;10759;51.982;9.232;2022-11-18T04:22:05;98752.88;;;7.04;100.00
21203;BME280;10759;51.982;9.232;2022-11-18T04:24:33;98741.84;;;7.12;100.00
21203;BME280;10759;51.982;9.232;2022-11-18T04:27:01;98745.63;;;7.06;100.00
21203;BME280;10759;51.982;9.232;2022-11-18T04:29:30;98764.50;;;7.01;100.00
21203;BME280;10759;51.982;9.232;2022-11-18T04:31:59;98770.44;;;6.89;100.00
21203;BME280;10759;51.982;9.232;2022-11-18T04:34:29;98772.41;;;6.66;100.00
21203;BME280;10759;51.982;9.232;2022-11-18T04:36:58;98772.13;;;6.73;100.00
21203;BME280;10759;51.982;9.232;2022-11-18T04:39:26;98780.47;;;6.65;100.00
21203;BME280;10759;51.982;9.232;2022-11-18T04:41:54;98742.25;;;6.47;100.00
21203;BME280;10759;51.982;9.232;2022-11-18T04:44:26;98784.22;;;6.80;100.00
21203;BME280;10759;51.982;9.232;2022-11-18T04:46:55;98789.00;;;6.91;100.00
21203;BME280;10759;51.982;9.232;2022-11-18T04:49:24;98775.47;;;6.95;100.00
21203;BME280;10759;51.982;9.232;2022-11-18T04:51:54;98660.19;;;6.20;100.00
21203;BME280;10759;51.982;9.232;2022-11-18T04:54:23;98786.69;;;7.02;100.00
21203;BME280;10759;51.982;9.232;2022-11-18T04:56:52;98787.41;;;7.05;100.00
21203;BME280;10759;51.982;9.232;2022-11-18T04:59:24;98726.38;;;6.45;100.00
21203;BME280;10759;51.982;9.232;2022-11-18T05:01:53;98795.91;;;6.95;100.00
21203;BME280;10759;51.982;9.232;2022-11-18T05:04:23;98666.09;;;6.08;100.00
21203;BME280;10759;51.982;9.232;2022-11-18T05:06:51;98794.50;;;6.87;100.00
21203;BME280;10759;51.982;9.232;2022-11-18T05:09:21;98697.53;;;6.17;100.00
21203;BME280;10759;51.982;9.232;2022-11-18T05:11:57;98787.56;;;6.64;100.00
21203;BME280;10759;51.982;9.232;2022-11-18T05:14:42;98785.88;;;6.63;100.00
21203;BME280;10759;51.982;9.232;2022-11-18T05:17:15;98775.56;;;6.56;100.00
21203;BME280;10759;51.982;9.232;2022-11-18T05:19:43;98799.81;;;6.69;100.00
21203;BME280;10759;51.982;9.232;2022-11-18T05:22:13;98809.19;;;6.77;100.00
21203;BME280;10759;51.982;9.232;2022-11-18T05:24:42;98815.56;;;6.92;100.00
21203;BME280;10759;51.982;9.232;2022-11-18T05:27:11;98818.03;;;6.78;100.00
21203;BME280;10759;51.982;9.232;2022-11-18T05:29:39;98815.34;;;6.78;100.00
21203;BME280;10759;51.982;9.232;2022-11-18T05:32:08;98823.28;;;6.79;100.00
21203;BME280;10759;51.982;9.232;2022-11-18T05:34:36;98802.38;;;6.89;100.00
21203;BME280;10759;51.982;9.232;2022-11-18T05:37:05;98823.94;;;6.84;100.00
21203;BME280;10759;51.982;9.232;2022-11-18T05:39:33;98842.69;;;6.81;100.00
21203;BME280;10759;51.982;9.232;2022-11-18T05:42:04;98827.16;;;6.72;100.00
21203;BME280;10759;51.982;9.232;2022-11-18T05:44:49;98839.44;;;6.94;100.00
21203;BME280;10759;51.982;9.232;2022-11-18T05:47:24;98644.31;;;5.79;100.00
21203;BME280;10759;51.982;9.232;2022-11-18T05:49:52;98785.22;;;6.58;100.00
21203;BME280;10759;51.982;9.232;2022-11-18T05:52:21;98849.59;;;6.85;100.00
21203;BME280;10759;51.982;9.232;2022-11-18T05:54:49;98831.91;;;6.65;100.00
21203;BME280;10759;51.982;9.232;2022-11-18T05:57:19;98859.97;;;6.73;100.00
21203;BME280;10759;51.982;9.232;2022-11-18T05:59:47;98868.59;;;6.78;100.00
21203;BME280;10759;51.982;9.232;2022-11-18T06:02:18;98859.47;;;6.83;100.00
21203;BME280;10759;51.982;9.232;2022-11-18T06:04:50;98853.19;;;6.65;100.00
21203;BME280;10759;51.982;9.232;2022-11-18T06:07:22;98871.53;;;6.53;100.00
21203;BME280;10759;51.982;9.232;2022-11-18T06:09:55;98869.59;;;6.56;100.00
21203;BME280;10759;51.982;9.232;2022-11-18T06:12:36;98884.69;;;6.56;100.00
21203;BME280;10759;51.982;9.232;2022-11-18T06:15:08;98886.75;;;6.70;100.00
21203;BME280;10759;51.982;9.232;2022-11-18T06:17:42;98886.75;;;6.70;100.00
21203;BME280;10759;51.982;9.232;2022-11-18T06:20:12;98885.84;;;6.50;100.00
21203;BME280;10759;51.982;9.232;2022-11-18T06:22:40;98884.09;;;6.49;100.00
21203;BME280;10759;51.982;9.232;2022-11-18T06:25:12;98886.66;;;6.32;100.00
21203;BME280;10759;51.982;9.232;2022-11-18T06:27:43;98887.84;;;6.45;100.00
21203;BME280;10759;51.982;9.232;2022-11-18T06:30:11;98884.25;;;6.46;100.00
21203;BME280;10759;51.982;9.232;2022-11-18T06:32:40;98862.06;;;6.27;100.00
21203;BME280;10759;51.982;9.232;2022-11-18T06:35:08;98880.53;;;6.50;100.00
21203;BME280;10759;51.982;9.232;2022-11-18T06:37:36;98784.16;;;5.84;100.00
21203;BME280;10759;51.982;9.232;2022-11-18T06:40:05;98893.94;;;6.47;100.00
21203;BME280;10759;51.982;9.232;2022-11-18T06:42:33;98898.25;;;6.31;100.00
21203;BME280;10759;51.982;9.232;2022-11-18T06:45:20;98901.69;;;6.33;100.00
21203;BME280;10759;51.982;9.232;2022-11-18T06:47:48;98843.88;;;5.75;100.00
21203;BME280;10759;51.982;9.232;2022-11-18T06:50:15;98918.16;;;6.00;100.00
21203;BME280;10759;51.982;9.232;2022-11-18T06:52:44;98916.13;;;5.85;100.00
21203;BME280;10759;51.982;9.232;2022-11-18T06:55:12;98898.03;;;5.72;100.00
21203;BME280;10759;51.982;9.232;2022-11-18T06:57:40;98928.38;;;5.89;100.00
21203;BME280;10759;51.982;9.232;2022-11-18T07:00:09;98911.00;;;5.80;100.00
21203;BME280;10759;51.982;9.232;2022-11-18T07:02:38;98812.94;;;5.09;100.00
21203;BME280;10759;51.982;9.232;2022-11-18T07:05:07;98922.25;;;5.87;100.00
21203;BME280;10759;51.982;9.232;2022-11-18T07:07:35;98942.53;;;6.11;100.00
21203;BME280;10759;51.982;9.232;2022-11-18T07:10:08;98947.75;;;6.13;100.00
21203;BME280;10759;51.982;9.232;2022-11-18T07:12:36;98945.72;;;6.19;100.00
21203;BME280;10759;51.982;9.232;2022-11-18T07:15:05;98858.53;;;5.63;100.00
21203;BME280;10759;51.982;9.232;2022-11-18T07:17:33;98949.81;;;6.06;100.00
21203;BME280;10759;51.982;9.232;2022-11-18T07:20:03;98955.53;;;5.97;100.00
21203;BME280;10759;51.982;9.232;2022-11-18T07:22:31;98963.03;;;6.08;100.00
21203;BME280;10759;51.982;9.232;2022-11-18T07:24:59;98960.84;;;6.17;100.00
21203;BME280;10759;51.982;9.232;2022-11-18T07:27:27;98969.91;;;6.13;100.00
21203;BME280;10759;51.982;9.232;2022-11-18T07:29:55;98970.31;;;6.24;100.00
21203;BME280;10759;51.982;9.232;2022-11-18T07:32:23;98982.19;;;6.38;100.00
21203;BME280;10759;51.982;9.232;2022-11-18T07:34:51;98987.22;;;6.44;100.00
21203;BME280;10759;51.982;9.232;2022-11-18T07:37:21;98983.50;;;6.48;100.00
21203;BME280;10759;51.982;9.232;2022-11-18T07:39:49;98986.53;;;6.18;100.00
21203;BME280;10759;51.982;9.232;2022-11-18T07:42:17;98994.53;;;6.18;100.00
21203;BME280;10759;51.982;9.232;2022-11-18T07:44:45;98995.56;;;6.14;100.00
21203;BME280;10759;51.982;9.232;2022-11-18T07:47:13;98992.91;;;6.14;100.00
21203;BME280;10759;51.982;9.232;2022-11-18T07:49:41;98999.75;;;6.20;100.00
21203;BME280;10759;51.982;9.232;2022-11-18T07:52:09;98996.09;;;6.02;100.00
21203;BME280;10759;51.982;9.232;2022-11-18T07:54:38;98995.19;;;6.23;100.00
21203;BME280;10759;51.982;9.232;2022-11-18T07:57:06;99007.81;;;6.18;100.00
21203;BME280;10759;51.982;9.232;2022-11-18T07:59:35;98902.22;;;5.56;100.00
21203;BME280;10759;51.982;9.232;2022-11-18T08:02:03;98919.78;;;5.60;100.00
21203;BME280;10759;51.982;9.232;2022-11-18T08:04:32;99008.00;;;6.14;100.00
21203;BME280;10759;51.982;9.232;2022-11-18T08:07:00;99011.06;;;6.25;100.00
21203;BME280;10759;51.982;9.232;2022-11-18T08:09:28;99007.13;;;6.35;100.00
21203;BME280;10759;51.982;9.232;2022-11-18T08:11:58;98962.34;;;5.80;100.00
21203;BME280;10759;51.982;9.232;2022-11-18T08:14:26;99008.69;;;5.97;100.00
21203;BME280;10759;51.982;9.232;2022-11-18T08:16:54;98985.22;;;6.08;100.00
21203;BME280;10759;51.982;9.232;2022-11-18T08:19:22;99004.31;;;5.96;100.00
21203;BME280;10759;51.982;9.232;2022-11-18T08:21:50;99031.09;;;6.13;100.00
21203;BME280;10759;51.982;9.232;2022-11-18T08:24:18;99038.66;;;6.22;100.00
21203;BME280;10759;51.982;9.232;2022-11-18T08:26:46;99037.63;;;6.05;100.00
21203;BME280;10759;51.982;9.232;2022-11-18T08:29:16;99039.44;;;6.04;100.00
21203;BME280;10759;51.982;9.232;2022-11-18T08:31:50;99039.38;;;6.06;100.00
21203;BME280;10759;51.982;9.232;2022-11-18T08:34:18;99040.06;;;6.11;100.00
21203;BME280;10759;51.982;9.232;2022-11-18T08:36:46;99053.97;;;6.17;100.00
21203;BME280;10759;51.982;9.232;2022-11-18T08:39:14;98943.72;;;5.60;100.00
21203;BME280;10759;51.982;9.232;2022-11-18T08:41:43;99044.44;;;6.12;100.00
21203;BME280;10759;51.982;9.232;2022-11-18T08:44:14;99041.09;;;6.07;100.00
21203;BME280;10759;51.982;9.232;2022-11-18T08:46:44;99048.91;;;6.11;100.00
21203;BME280;10759;51.982;9.232;2022-11-18T08:49:12;99039.16;;;6.10;100.00
21203;BME280;10759;51.982;9.232;2022-11-18T08:51:40;99054.81;;;5.74;100.00
21203;BME280;10759;51.982;9.232;2022-11-18T08:54:08;99052.44;;;5.66;100.00
21203;BME280;10759;51.982;9.232;2022-11-18T08:56:36;99024.59;;;5.53;100.00
21203;BME280;10759;51.982;9.232;2022-11-18T08:59:04;99054.03;;;5.94;100.00
21203;BME280;10759;51.982;9.232;2022-11-18T09:01:32;99058.31;;;5.74;100.00
21203;BME280;10759;51.982;9.232;2022-11-18T09:04:02;99060.31;;;5.91;100.00
21203;BME280;10759;51.982;9.232;2022-11-18T09:06:33;99050.84;;;5.84;100.00
21203;BME280;10759;51.982;9.232;2022-11-18T09:09:01;99021.50;;;5.42;100.00
21203;BME280;10759;51.982;9.232;2022-11-18T09:11:32;99070.06;;;5.69;100.00
21203;BME280;10759;51.982;9.232;2022-11-18T09:14:01;99077.63;;;5.56;100.00
21203;BME280;10759;51.982;9.232;2022-11-18T09:16:49;99071.06;;;5.66;100.00
21203;BME280;10759;51.982;9.232;2022-11-18T09:19:18;99078.09;;;5.67;100.00
21203;BME280;10759;51.982;9.232;2022-11-18T09:22:07;99041.72;;;5.22;100.00
21203;BME280;10759;51.982;9.232;2022-11-18T09:24:35;99082.25;;;5.74;100.00
21203;BME280;10759;51.982;9.232;2022-11-18T09:27:05;99072.94;;;5.86;100.00
21203;BME280;10759;51.982;9.232;2022-11-18T09:29:40;99089.53;;;5.69;100.00
21203;BME280;10759;51.982;9.232;2022-11-18T09:32:09;99086.28;;;5.85;100.00
21203;BME280;10759;51.982;9.232;2022-11-18T09:34:38;99068.66;;;5.82;100.00
21203;BME280;10759;51.982;9.232;2022-11-18T09:37:07;99101.88;;;5.70;100.00
21203;BME280;10759;51.982;9.232;2022-11-18T09:39:35;99100.38;;;5.63;100.00
21203;BME280;10759;51.982;9.232;2022-11-18T09:42:14;99091.28;;;5.47;100.00
21203;BME280;10759;51.982;9.232;2022-11-18T09:44:54;99100.41;;;5.85;100.00
21203;BME280;10759;51.982;9.232;2022-11-18T09:47:28;99111.19;;;5.82;100.00
21203;BME280;10759;51.982;9.232;2022-11-18T09:50:00;99113.44;;;5.46;100.00
21203;BME280;10759;51.982;9.232;2022-11-18T09:53:01;99076.66;;;5.35;100.00
21203;BME280;10759;51.982;9.232;2022-11-18T09:55:33;99102.28;;;5.59;100.00
21203;BME280;10759;51.982;9.232;2022-11-18T09:58:04;99117.13;;;5.89;100.00
21203;BME280;10759;51.982;9.232;2022-11-18T10:00:33;99118.16;;;5.61;100.00
21203;BME280;10759;51.982;9.232;2022-11-18T10:03:03;99117.47;;;5.32;100.00
21203;BME280;10759;51.982;9.232;2022-11-18T10:05:44;99135.16;;;5.57;100.00
21203;BME280;10759;51.982;9.232;2022-11-18T10:08:21;99118.41;;;5.55;100.00
21203;BME280;10759;51.982;9.232;2022-11-18T10:10:56;99062.03;;;5.23;100.00
21203;BME280;10759;51.982;9.232;2022-11-18T10:13:37;99130.97;;;5.51;100.00
21203;BME280;10759;51.982;9.232;2022-11-18T10:16:21;99040.94;;;4.70;100.00
21203;BME280;10759;51.982;9.232;2022-11-18T10:18:54;99138.50;;;5.38;100.00
21203;BME280;10759;51.982;9.232;2022-11-18T10:21:36;98949.63;;;4.00;100.00
21203;BME280;10759;51.982;9.232;2022-11-18T10:24:11;99155.81;;;5.25;100.00
21203;BME280;10759;51.982;9.232;2022-11-18T10:26:40;99166.03;;;5.36;100.00
21203;BME280;10759;51.982;9.232;2022-11-18T10:29:09;99166.28;;;5.53;100.00
21203;BME280;10759;51.982;9.232;2022-11-18T10:31:37;99126.38;;;5.06;100.00
21203;BME280;10759;51.982;9.232;2022-11-18T10:34:09;99175.09;;;5.30;100.00
21203;BME280;10759;51.982;9.232;2022-11-18T10:36:42;99096.56;;;4.98;100.00
21203;BME280;10759;51.982;9.232;2022-11-18T10:39:11;99123.69;;;5.31;100.00
21203;BME280;10759;51.982;9.232;2022-11-18T10:41:48;99155.63;;;5.55;100.00
21203;BME280;10759;51.982;9.232;2022-11-18T10:44:38;99176.72;;;5.59;100.00
21203;BME280;10759;51.982;9.232;2022-11-18T10:47:21;99183.66;;;5.38;100.00
21203;BME280;10759;51.982;9.232;2022-11-18T10:49:50;99176.72;;;5.34;100.00
21203;BME280;10759;51.982;9.232;2022-11-18T10:52:20;99152.59;;;5.15;100.00
21203;BME280;10759;51.982;9.232;2022-11-18T10:55:06;99205.13;;;5.07;100.00
21203;BME280;10759;51.982;9.232;2022-11-18T10:57:36;99196.19;;;5.10;100.00
21203;BME280;10759;51.982;9.232;2022-11-18T11:00:33;99200.50;;;4.87;100.00
21203;BME280;10759;51.982;9.232;2022-11-18T11:03:28;99202.41;;;5.09;100.00
21203;BME280;10759;51.982;9.232;2022-11-18T11:09:07;99208.75;;;4.78;100.00
21203;BME280;10759;51.982;9.232;2022-11-18T11:11:37;99180.97;;;4.62;100.00
21203;BME280;10759;51.982;9.232;2022-11-18T11:14:19;99205.16;;;5.06;100.00
21203;BME280;10759;51.982;9.232;2022-11-18T11:16:55;99175.66;;;4.62;100.00
21203;BME280;10759;51.982;9.232;2022-11-18T11:19:29;99207.63;;;4.85;100.00
21203;BME280;10759;51.982;9.232;2022-11-18T11:21:59;99217.72;;;4.74;100.00
21203;BME280;10759;51.982;9.232;2022-11-18T11:24:29;99193.81;;;4.47;100.00
21203;BME280;10759;51.982;9.232;2022-11-18T11:27:16;99170.16;;;4.68;100.00
21203;BME280;10759;51.982;9.232;2022-11-18T11:30:18;99224.38;;;4.59;100.00
21203;BME280;10759;51.982;9.232;2022-11-18T11:33:06;99232.84;;;4.44;100.00
21203;BME280;10759;51.982;9.232;2022-11-18T11:35:40;99221.91;;;4.25;100.00
21203;BME280;10759;51.982;9.232;2022-11-18T11:38:15;99231.47;;;4.30;100.00
21203;BME280;10759;51.982;9.232;2022-11-18T11:40:57;99237.56;;;4.34;100.00
21203;BME280;10759;51.982;9.232;2022-11-18T11:43:34;99229.25;;;4.17;100.00
21203;BME280;10759;51.982;9.232;2022-11-18T11:46:19;99222.19;;;4.16;100.00
21203;BME280;10759;51.982;9.232;2022-11-18T11:48:55;99186.50;;;3.98;100.00
21203;BME280;10759;51.982;9.232;2022-11-18T11:51:30;99225.31;;;4.30;100.00
21203;BME280;10759;51.982;9.232;2022-11-18T11:54:10;99247.00;;;4.43;100.00
21203;BME280;10759;51.982;9.232;2022-11-18T11:56:46;99245.09;;;4.48;100.00
21203;BME280;10759;51.982;9.232;2022-11-18T11:59:21;99246.94;;;4.46;100.00
21203;BME280;10759;51.982;9.232;2022-11-18T12:01:57;99247.25;;;4.35;100.00
21203;BME280;10759;51.982;9.232;2022-11-18T12:04:37;99177.44;;;3.77;100.00
21203;BME280;10759;51.982;9.232;2022-11-18T12:07:13;99265.22;;;4.25;100.00
21203;BME280;10759;51.982;9.232;2022-11-18T12:09:51;99239.03;;;4.15;100.00
21203;BME280;10759;51.982;9.232;2022-11-18T12:12:29;99263.47;;;4.26;100.00
21203;BME280;10759;51.982;9.232;2022-11-18T12:15:13;99249.34;;;3.94;100.00
21203;BME280;10759;51.982;9.232;2022-11-18T12:17:50;99255.06;;;3.79;100.00
21203;BME280;10759;51.982;9.232;2022-11-18T12:20:38;99258.91;;;4.00;100.00
21203;BME280;10759;51.982;9.232;2022-11-18T12:23:11;99268.81;;;4.23;100.00
21203;BME280;10759;51.982;9.232;2022-11-18T12:25:53;99271.94;;;4.07;100.00
21203;BME280;10759;51.982;9.232;2022-11-18T12:28:33;99279.03;;;4.07;100.00
21203;BME280;10759;51.982;9.232;2022-11-18T12:34:17;99284.75;;;3.60;100.00
21203;BME280;10759;51.982;9.232;2022-11-18T12:36:46;99257.63;;;3.51;100.00
21203;BME280;10759;51.982;9.232;2022-11-18T12:39:45;99278.91;;;3.79;100.00
21203;BME280;10759;51.982;9.232;2022-11-18T12:42:34;99278.97;;;4.08;100.00
21203;BME280;10759;51.982;9.232;2022-11-18T12:48:43;99286.16;;;4.05;100.00
21203;BME280;10759;51.982;9.232;2022-11-18T12:51:40;99292.78;;;3.88;100.00
21203;BME280;10759;51.982;9.232;2022-11-18T12:54:29;99294.16;;;3.71;100.00
21203;BME280;10759;51.982;9.232;2022-11-18T12:57:00;99296.97;;;3.97;100.00
21203;BME280;10759;51.982;9.232;2022-11-18T12:59:31;99304.03;;;3.65;100.00
21203;BME280;10759;51.982;9.232;2022-11-18T13:02:16;99295.44;;;3.56;100.00
21203;BME280;10759;51.982;9.232;2022-11-18T13:05:03;99292.50;;;3.34;100.00
21203;BME280;10759;51.982;9.232;2022-11-18T13:07:32;99302.56;;;3.54;100.00
21203;BME280;10759;51.982;9.232;2022-11-18T13:10:37;99300.88;;;3.51;100.00
21203;BME280;10759;51.982;9.232;2022-11-18T13:13:20;99264.25;;;3.67;100.00
21203;BME280;10759;51.982;9.232;2022-11-18T13:15:49;99311.22;;;3.93;100.00
21203;BME280;10759;51.982;9.232;2022-11-18T13:18:47;99303.41;;;4.20;100.00
21203;BME280;10759;51.982;9.232;2022-11-18T13:21:31;99316.63;;;3.90;100.00
21203;BME280;10759;51.982;9.232;2022-11-18T13:24:18;99321.47;;;4.05;100.00
21203;BME280;10759;51.982;9.232;2022-11-18T13:26:52;99321.16;;;3.86;100.00
21203;BME280;10759;51.982;9.232;2022-11-18T13:29:30;99296.22;;;3.27;100.00
21203;BME280;10759;51.982;9.232;2022-11-18T13:32:08;99325.34;;;3.27;100.00
21203;BME280;10759;51.982;9.232;2022-11-18T13:34:45;99335.78;;;3.33;100.00
21203;BME280;10759;51.982;9.232;2022-11-18T13:37:20;99320.63;;;3.02;100.00
21203;BME280;10759;51.982;9.232;2022-11-18T13:39:49;99327.41;;;3.14;100.00
21203;BME280;10759;51.982;9.232;2022-11-18T13:42:19;99326.69;;;3.07;100.00